Trabzon — 9HA2783 — position and weather

sailwx.info

Track history (hours):
 
Tides and Currents Weather Stations Pressure Air Temp Water Temp Dewpoint Dewpoint Depression Visibility Wind Speed Wind Dir Waves Ship Positions

Trabzon

Last reported at 2017-Aug-17 07:29 UTC. Time now 2017-Aug-17 07:56 UTC.
Position N 53°39' E 009°31'.

Length 229 m; draft 11.7 m.

Type: Cargo ship. MMSI: 215679000.

Date/timePositionNaut miles runAvg speedWind from/ knotsBaromVisibWave heightAir tempDewpointWater temp
2017-Aug-17 07:29N 53°39' E 009°31'0 0.0
2017-Aug-17 06:59N 53°39' E 009°31'0 0.0
2017-Aug-17 06:29N 53°39' E 009°31'0 0.0
2017-Aug-17 05:59N 53°39' E 009°31'0 0.0
2017-Aug-17 05:29N 53°39' E 009°31'0 0.0
2017-Aug-17 04:59N 53°39' E 009°31'0 0.0
2017-Aug-17 04:29N 53°39' E 009°31'0 0.0
2017-Aug-17 03:59N 53°39' E 009°31'0 0.0
2017-Aug-17 03:29N 53°39' E 009°31'0 0.0
2017-Aug-17 02:59N 53°39' E 009°31'0 0.0
2017-Aug-17 02:29N 53°39' E 009°31'0 0.0
2017-Aug-17 01:59N 53°39' E 009°31'0 0.0
2017-Aug-17 01:29N 53°39' E 009°31'0 0.0
2017-Aug-17 00:59N 53°39' E 009°31'0 0.0
2017-Aug-17 00:29N 53°39' E 009°31'0 0.0
2017-Aug-16 23:59N 53°39' E 009°31'0 0.0
2017-Aug-16 23:29N 53°39' E 009°31'0 0.0
2017-Aug-16 22:59N 53°39' E 009°31'0 0.0
2017-Aug-16 22:29N 53°39' E 009°31'0 0.0
2017-Aug-16 21:59N 53°39' E 009°31'0 0.0
2017-Aug-16 21:29N 53°39' E 009°31'0 0.0
2017-Aug-16 20:59N 53°39' E 009°31'0 0.0
2017-Aug-16 20:29N 53°39' E 009°31'0 0.0
2017-Aug-16 19:59N 53°39' E 009°31'0 0.0
2017-Aug-16 19:29N 53°39' E 009°31'0 0.0
2017-Aug-16 18:59N 53°39' E 009°31'0 0.0
2017-Aug-16 18:29N 53°39' E 009°31'0 0.0
2017-Aug-16 17:59N 53°39' E 009°31'0 0.0
2017-Aug-16 17:29N 53°39' E 009°31'0 0.0
2017-Aug-16 16:59N 53°39' E 009°31'0 0.0
2017-Aug-16 16:23N 53°39' E 009°31'0 0.0
2017-Aug-16 15:59N 53°39' E 009°31'0 0.0
2017-Aug-16 15:29N 53°39' E 009°31'0 0.0
2017-Aug-16 14:59N 53°39' E 009°31'0 0.0
2017-Aug-16 14:29N 53°39' E 009°31'0 0.0
2017-Aug-16 13:59N 53°39' E 009°31'0 0.0
2017-Aug-16 13:29N 53°39' E 009°31'0 0.0
2017-Aug-16 12:59N 53°39' E 009°31'0 0.0
2017-Aug-16 12:29N 53°39' E 009°31'0 0.0
2017-Aug-16 11:59N 53°39' E 009°31'0 0.0
2017-Aug-16 11:29N 53°39' E 009°31'0 0.0
2017-Aug-16 10:59N 53°39' E 009°31'0 0.0
2017-Aug-16 10:29N 53°39' E 009°31'0 0.0
2017-Aug-16 09:59N 53°39' E 009°31'0 0.0
2017-Aug-16 09:29N 53°39' E 009°31'0 0.0
2017-Aug-16 09:00N 53°39' E 009°31'0 0.0
2017-Aug-16 08:30N 53°39' E 009°31'0 0.0
2017-Aug-16 08:01N 53°39' E 009°31'0 0.0
2017-Aug-16 07:30N 53°39' E 009°31'0 0.0
2017-Aug-15 12:35N 53°39' E 009°31'0 0.0
2017-Aug-15 12:30N 53°39' E 009°31'0 0.0
2017-Aug-15 12:01N 53°39' E 009°31'0 0.0
2017-Aug-15 09:49N 53°39' E 009°31'0 0.0
2017-Aug-15 09:31N 53°39' E 009°31'0 0.0
2017-Aug-15 09:00N 53°39' E 009°31'0 0.0
2017-Aug-15 08:30N 53°39' E 009°31'0 0.2
2017-Aug-15 08:01N 53°39' E 009°31'3 5.2
2017-Aug-15 07:31N 53°42' E 009°30'611.7
2017-Aug-15 07:01N 53°47' E 009°24'612.4
2017-Aug-15 06:30N 53°52' E 009°18'510.9
2017-Aug-15 06:00N 53°53' E 009°09'610.9
2017-Aug-15 05:30N 53°51' E 008°60'713.8
2017-Aug-15 05:00N 53°50' E 008°48'713.7
2017-Aug-15 04:30N 53°55' E 008°40'713.3
2017-Aug-15 04:01N 53°58' E 008°30'713.3
2017-Aug-15 03:31N 53°59' E 008°19'612.3
2017-Aug-15 03:00N 53°59' E 008°09'611.2
2017-Aug-15 02:31N 53°60' E 007°59'2 3.7
2017-Aug-15 01:55N 54°01' E 007°56'1 1.6
2017-Aug-15 01:29N 54°01' E 007°57'1 2.7
2017-Aug-15 01:00N 54°02' E 007°56'4 8.1
2017-Aug-15 00:31N 54°04' E 007°50'4 6.8
2017-Aug-14 23:58N 54°06' E 007°45'  
2017-Aug-09 06:11N 50°20' E 000°02'211.4
2017-Aug-09 06:01N 50°20' W 000°01'611.2
2017-Aug-09 05:30N 50°18' W 000°09'510.9
2017-Aug-09 05:00N 50°17' W 000°17'2410.0
2017-Aug-09 02:38N 50°11' W 000°53'1 9.4
2017-Aug-09 02:30N 50°11' W 000°55'5 9.5
2017-Aug-09 02:00N 50°09' W 001°02'7 9.9
2017-Aug-09 01:20N 50°08' W 001°12'310.5
2017-Aug-09 01:00N 50°07' W 001°18'510.9
2017-Aug-09 00:30N 50°05' W 001°26'611.6
2017-Aug-09 00:00N 50°03' W 001°34'612.3
2017-Aug-08 23:30N 50°02' W 001°44'713.2
2017-Aug-08 23:00N 49°60' W 001°53'713.9
2017-Aug-08 22:30N 49°58' W 002°04'2814.4
2017-Aug-08 20:33N 49°51' W 002°46'014.4
2017-Aug-08 20:31N 49°51' W 002°47'2014.2
2017-Aug-08 19:04N 49°41' W 003°15'114.0
2017-Aug-08 19:01N 49°40' W 003°16'1013.8
2017-Aug-08 18:19N 49°36' W 003°29'7213.2
2017-Aug-08 12:52N 48°59' W 005°03'512.8
2017-Aug-08 12:30N 48°57' W 005°09'712.9
2017-Aug-08 11:58N 48°53' W 005°18'612.5
2017-Aug-08 11:30N 48°50' W 005°26'612.4
2017-Aug-08 11:00N 48°47' W 005°34'  
Track history (hours):
 
Tides and Currents Weather Stations Pressure Air Temp Water Temp Dewpoint Dewpoint Depression Visibility Wind Speed Wind Dir Waves Ship Positions

Trabzon

Last reported at 2017-Aug-17 07:29 UTC. Time now 2017-Aug-17 07:56 UTC.
Position N 53°39' E 009°31'.

Length 229 m; draft 11.7 m.

Type: Cargo ship. MMSI: 215679000.

Date/timePositionNaut miles runAvg speedWind from/ knotsBaromVisibWave heightAir tempDewpointWater temp
2017-Aug-17 07:29N 53°39' E 009°31'0 0.0
2017-Aug-17 06:59N 53°39' E 009°31'0 0.0
2017-Aug-17 06:29N 53°39' E 009°31'0 0.0
2017-Aug-17 05:59N 53°39' E 009°31'0 0.0
2017-Aug-17 05:29N 53°39' E 009°31'0 0.0
2017-Aug-17 04:59N 53°39' E 009°31'0 0.0
2017-Aug-17 04:29N 53°39' E 009°31'0 0.0
2017-Aug-17 03:59N 53°39' E 009°31'0 0.0
2017-Aug-17 03:29N 53°39' E 009°31'0 0.0
2017-Aug-17 02:59N 53°39' E 009°31'0 0.0
2017-Aug-17 02:29N 53°39' E 009°31'0 0.0
2017-Aug-17 01:59N 53°39' E 009°31'0 0.0
2017-Aug-17 01:29N 53°39' E 009°31'0 0.0
2017-Aug-17 00:59N 53°39' E 009°31'0 0.0
2017-Aug-17 00:29N 53°39' E 009°31'0 0.0
2017-Aug-16 23:59N 53°39' E 009°31'0 0.0
2017-Aug-16 23:29N 53°39' E 009°31'0 0.0
2017-Aug-16 22:59N 53°39' E 009°31'0 0.0
2017-Aug-16 22:29N 53°39' E 009°31'0 0.0
2017-Aug-16 21:59N 53°39' E 009°31'0 0.0
2017-Aug-16 21:29N 53°39' E 009°31'0 0.0
2017-Aug-16 20:59N 53°39' E 009°31'0 0.0
2017-Aug-16 20:29N 53°39' E 009°31'0 0.0
2017-Aug-16 19:59N 53°39' E 009°31'0 0.0
2017-Aug-16 19:29N 53°39' E 009°31'0 0.0
2017-Aug-16 18:59N 53°39' E 009°31'0 0.0
2017-Aug-16 18:29N 53°39' E 009°31'0 0.0
2017-Aug-16 17:59N 53°39' E 009°31'0 0.0
2017-Aug-16 17:29N 53°39' E 009°31'0 0.0
2017-Aug-16 16:59N 53°39' E 009°31'0 0.0
2017-Aug-16 16:23N 53°39' E 009°31'0 0.0
2017-Aug-16 15:59N 53°39' E 009°31'0 0.0
2017-Aug-16 15:29N 53°39' E 009°31'0 0.0
2017-Aug-16 14:59N 53°39' E 009°31'0 0.0
2017-Aug-16 14:29N 53°39' E 009°31'0 0.0
2017-Aug-16 13:59N 53°39' E 009°31'0 0.0
2017-Aug-16 13:29N 53°39' E 009°31'0 0.0
2017-Aug-16 12:59N 53°39' E 009°31'0 0.0
2017-Aug-16 12:29N 53°39' E 009°31'0 0.0
2017-Aug-16 11:59N 53°39' E 009°31'0 0.0
2017-Aug-16 11:29N 53°39' E 009°31'0 0.0
2017-Aug-16 10:59N 53°39' E 009°31'0 0.0
2017-Aug-16 10:29N 53°39' E 009°31'0 0.0
2017-Aug-16 09:59N 53°39' E 009°31'0 0.0
2017-Aug-16 09:29N 53°39' E 009°31'0 0.0
2017-Aug-16 09:00N 53°39' E 009°31'0 0.0
2017-Aug-16 08:30N 53°39' E 009°31'0 0.0
2017-Aug-16 08:01N 53°39' E 009°31'0 0.0
2017-Aug-16 07:30N 53°39' E 009°31'0 0.0
2017-Aug-15 12:35N 53°39' E 009°31'0 0.0
2017-Aug-15 12:30N 53°39' E 009°31'0 0.0
2017-Aug-15 12:01N 53°39' E 009°31'0 0.0
2017-Aug-15 09:49N 53°39' E 009°31'0 0.0
2017-Aug-15 09:31N 53°39' E 009°31'0 0.0
2017-Aug-15 09:00N 53°39' E 009°31'0 0.0
2017-Aug-15 08:30N 53°39' E 009°31'0 0.2
2017-Aug-15 08:01N 53°39' E 009°31'3 5.2
2017-Aug-15 07:31N 53°42' E 009°30'611.7
2017-Aug-15 07:01N 53°47' E 009°24'612.4
2017-Aug-15 06:30N 53°52' E 009°18'510.9
2017-Aug-15 06:00N 53°53' E 009°09'610.9
2017-Aug-15 05:30N 53°51' E 008°60'713.8
2017-Aug-15 05:00N 53°50' E 008°48'713.7
2017-Aug-15 04:30N 53°55' E 008°40'713.3
2017-Aug-15 04:01N 53°58' E 008°30'713.3
2017-Aug-15 03:31N 53°59' E 008°19'612.3
2017-Aug-15 03:00N 53°59' E 008°09'611.2
2017-Aug-15 02:31N 53°60' E 007°59'2 3.7
2017-Aug-15 01:55N 54°01' E 007°56'1 1.6
2017-Aug-15 01:29N 54°01' E 007°57'1 2.7
2017-Aug-15 01:00N 54°02' E 007°56'4 8.1
2017-Aug-15 00:31N 54°04' E 007°50'4 6.8
2017-Aug-14 23:58N 54°06' E 007°45'  
2017-Aug-09 06:11N 50°20' E 000°02'211.4
2017-Aug-09 06:01N 50°20' W 000°01'611.2
2017-Aug-09 05:30N 50°18' W 000°09'510.9
2017-Aug-09 05:00N 50°17' W 000°17'2410.0
2017-Aug-09 02:38N 50°11' W 000°53'1 9.4
2017-Aug-09 02:30N 50°11' W 000°55'5 9.5
2017-Aug-09 02:00N 50°09' W 001°02'7 9.9
2017-Aug-09 01:20N 50°08' W 001°12'310.5
2017-Aug-09 01:00N 50°07' W 001°18'510.9
2017-Aug-09 00:30N 50°05' W 001°26'611.6
2017-Aug-09 00:00N 50°03' W 001°34'612.3
2017-Aug-08 23:30N 50°02' W 001°44'713.2
2017-Aug-08 23:00N 49°60' W 001°53'713.9
2017-Aug-08 22:30N 49°58' W 002°04'2814.4
2017-Aug-08 20:33N 49°51' W 002°46'014.4
2017-Aug-08 20:31N 49°51' W 002°47'2014.2
2017-Aug-08 19:04N 49°41' W 003°15'114.0
2017-Aug-08 19:01N 49°40' W 003°16'1013.8
2017-Aug-08 18:19N 49°36' W 003°29'7213.2
2017-Aug-08 12:52N 48°59' W 005°03'512.8
2017-Aug-08 12:30N 48°57' W 005°09'712.9
2017-Aug-08 11:58N 48°53' W 005°18'612.5
2017-Aug-08 11:30N 48°50' W 005°26'612.4
2017-Aug-08 11:00N 48°47' W 005°34'  

Dump ship's entire track history